sensor_id;sensor_type;location;lat;lon;timestamp;pressure;altitude;pressure_sealevel;temperature;humidity
21742;BME280;11033;47.490;11.116;2023-02-14T00:01:53;94812.56;;;1.40;72.87
21742;BME280;11033;47.490;11.116;2023-02-14T00:04:18;94813.22;;;1.44;73.11
21742;BME280;11033;47.490;11.116;2023-02-14T00:06:44;94803.88;;;1.41;73.63
21742;BME280;11033;47.490;11.116;2023-02-14T00:09:14;94805.44;;;1.44;72.50
21742;BME280;11033;47.490;11.116;2023-02-14T00:11:40;94805.63;;;1.41;70.86
21742;BME280;11033;47.490;11.116;2023-02-14T00:14:06;94804.88;;;1.39;72.30
21742;BME280;11033;47.490;11.116;2023-02-14T00:16:50;94798.97;;;1.37;71.23
21742;BME280;11033;47.490;11.116;2023-02-14T00:19:16;94804.25;;;1.35;70.94
21742;BME280;11033;47.490;11.116;2023-02-14T00:21:42;94801.16;;;1.28;71.72
21742;BME280;11033;47.490;11.116;2023-02-14T00:24:13;94791.88;;;1.24;71.47
21742;BME280;11033;47.490;11.116;2023-02-14T00:26:39;94793.09;;;1.19;72.64
21742;BME280;11033;47.490;11.116;2023-02-14T00:29:06;94790.41;;;1.20;71.88
21742;BME280;11033;47.490;11.116;2023-02-14T00:31:32;94794.75;;;1.20;72.23
21742;BME280;11033;47.490;11.116;2023-02-14T00:33:57;94791.44;;;1.18;71.58
21742;BME280;11033;47.490;11.116;2023-02-14T00:36:23;94790.88;;;1.13;72.47
21742;BME280;11033;47.490;11.116;2023-02-14T00:38:48;94801.16;;;1.14;73.04
21742;BME280;11033;47.490;11.116;2023-02-14T00:41:13;94804.31;;;1.19;72.66
21742;BME280;11033;47.490;11.116;2023-02-14T00:43:49;94802.81;;;1.15;74.08
21742;BME280;11033;47.490;11.116;2023-02-14T00:46:17;94806.19;;;1.32;71.69
21742;BME280;11033;47.490;11.116;2023-02-14T00:48:42;94804.31;;;1.19;73.54
21742;BME280;11033;47.490;11.116;2023-02-14T00:51:09;94807.66;;;1.21;72.25
21742;BME280;11033;47.490;11.116;2023-02-14T00:53:35;94809.50;;;1.19;72.24
21742;BME280;11033;47.490;11.116;2023-02-14T00:56:00;94804.69;;;1.13;73.28
21742;BME280;11033;47.490;11.116;2023-02-14T00:58:26;94800.03;;;1.18;71.97
21742;BME280;11033;47.490;11.116;2023-02-14T01:00:51;94800.97;;;1.17;72.34
21742;BME280;11033;47.490;11.116;2023-02-14T01:03:17;94803.19;;;1.09;72.48
21742;BME280;11033;47.490;11.116;2023-02-14T01:05:43;94796.53;;;1.05;74.02
21742;BME280;11033;47.490;11.116;2023-02-14T01:08:08;94810.06;;;1.10;72.92
21742;BME280;11033;47.490;11.116;2023-02-14T01:10:35;94810.25;;;1.07;74.17
21742;BME280;11033;47.490;11.116;2023-02-14T01:13:00;94809.31;;;1.08;73.22
21742;BME280;11033;47.490;11.116;2023-02-14T01:15:26;94818.03;;;1.07;72.49
21742;BME280;11033;47.490;11.116;2023-02-14T01:17:52;94808.38;;;1.09;73.18
21742;BME280;11033;47.490;11.116;2023-02-14T01:20:17;94818.94;;;1.06;73.75
21742;BME280;11033;47.490;11.116;2023-02-14T01:22:42;94810.88;;;1.11;73.47
21742;BME280;11033;47.490;11.116;2023-02-14T01:25:08;94806.72;;;1.08;71.80
21742;BME280;11033;47.490;11.116;2023-02-14T01:27:33;94806.53;;;1.11;73.58
21742;BME280;11033;47.490;11.116;2023-02-14T01:29:58;94800.31;;;1.14;73.18
21742;BME280;11033;47.490;11.116;2023-02-14T01:32:24;94810.78;;;1.12;73.57
21742;BME280;11033;47.490;11.116;2023-02-14T01:34:49;94811.91;;;1.08;73.24
21742;BME280;11033;47.490;11.116;2023-02-14T01:37:14;94817.28;;;1.19;72.72
21742;BME280;11033;47.490;11.116;2023-02-14T01:39:40;94815.97;;;1.12;73.63
21742;BME280;11033;47.490;11.116;2023-02-14T01:42:05;94816.81;;;1.27;73.15
21742;BME280;11033;47.490;11.116;2023-02-14T01:46:57;94805.97;;;1.20;73.01
21742;BME280;11033;47.490;11.116;2023-02-14T01:49:29;94809.59;;;1.18;71.97
21742;BME280;11033;47.490;11.116;2023-02-14T01:52:02;94808.19;;;1.12;72.28
21742;BME280;11033;47.490;11.116;2023-02-14T01:54:30;94802.63;;;1.18;72.49
21742;BME280;11033;47.490;11.116;2023-02-14T01:57:00;94806.34;;;1.14;74.03
21742;BME280;11033;47.490;11.116;2023-02-14T01:59:31;94813.22;;;1.15;73.19
21742;BME280;11033;47.490;11.116;2023-02-14T02:01:58;94811.81;;;1.24;71.84
21742;BME280;11033;47.490;11.116;2023-02-14T02:04:37;94807.56;;;1.23;73.62
21742;BME280;11033;47.490;11.116;2023-02-14T02:07:06;94810.59;;;1.30;71.98
21742;BME280;11033;47.490;11.116;2023-02-14T02:12:01;94812.47;;;1.27;72.00
21742;BME280;11033;47.490;11.116;2023-02-14T02:14:27;94812.31;;;1.31;70.78
21742;BME280;11033;47.490;11.116;2023-02-14T02:33:27;94795.59;;;1.20;72.73
21742;BME280;11033;47.490;11.116;2023-02-14T02:38:34;94795.97;;;1.14;73.31
21742;BME280;11033;47.490;11.116;2023-02-14T02:43:52;94792.63;;;1.12;73.14
21742;BME280;11033;47.490;11.116;2023-02-14T02:46:54;94784.09;;;1.10;71.84
21742;BME280;11033;47.490;11.116;2023-02-14T02:49:49;94781.88;;;1.04;72.57
21742;BME280;11033;47.490;11.116;2023-02-14T02:52:48;94777.91;;;0.99;72.35
21742;BME280;11033;47.490;11.116;2023-02-14T02:55:42;94776.50;;;0.93;73.03
21742;BME280;11033;47.490;11.116;2023-02-14T02:58:34;94778.19;;;0.94;72.65
21742;BME280;11033;47.490;11.116;2023-02-14T03:01:03;94775.41;;;0.97;72.99
21742;BME280;11033;47.490;11.116;2023-02-14T03:03:31;94779.66;;;0.98;72.95
21742;BME280;11033;47.490;11.116;2023-02-14T03:06:16;94771.69;;;0.87;73.69
21742;BME280;11033;47.490;11.116;2023-02-14T03:08:41;94777.06;;;0.84;73.41
21742;BME280;11033;47.490;11.116;2023-02-14T03:11:06;94776.69;;;0.90;72.12
21742;BME280;11033;47.490;11.116;2023-02-14T03:19:06;94770.31;;;0.95;71.16
21742;BME280;11033;47.490;11.116;2023-02-14T03:24:10;94782.34;;;0.82;73.05
21742;BME280;11033;47.490;11.116;2023-02-14T03:26:49;94778.63;;;0.72;73.21
21742;BME280;11033;47.490;11.116;2023-02-14T03:34:41;94782.75;;;0.60;73.17
21742;BME280;11033;47.490;11.116;2023-02-14T03:37:14;94778.00;;;0.53;73.67
21742;BME280;11033;47.490;11.116;2023-02-14T03:40:01;94779.03;;;0.50;73.74
21742;BME280;11033;47.490;11.116;2023-02-14T03:42:31;94779.94;;;0.49;74.12
21742;BME280;11033;47.490;11.116;2023-02-14T03:45:00;94778.38;;;0.47;75.29
21742;BME280;11033;47.490;11.116;2023-02-14T03:47:30;94784.31;;;0.63;73.97
21742;BME280;11033;47.490;11.116;2023-02-14T03:50:06;94780.16;;;0.60;74.80
21742;BME280;11033;47.490;11.116;2023-02-14T03:52:33;94789.34;;;0.66;73.70
21742;BME280;11033;47.490;11.116;2023-02-14T03:55:02;94790.19;;;0.67;74.73
21742;BME280;11033;47.490;11.116;2023-02-14T03:57:36;94794.19;;;0.72;73.64
21742;BME280;11033;47.490;11.116;2023-02-14T04:00:04;94792.00;;;0.64;74.28
21742;BME280;11033;47.490;11.116;2023-02-14T04:02:34;94795.94;;;0.72;73.30
21742;BME280;11033;47.490;11.116;2023-02-14T04:05:04;94788.53;;;0.66;73.98
21742;BME280;11033;47.490;11.116;2023-02-14T04:07:43;94785.34;;;0.60;74.51
21742;BME280;11033;47.490;11.116;2023-02-14T04:10:09;94793.19;;;0.59;73.77
21742;BME280;11033;47.490;11.116;2023-02-14T04:12:34;94786.22;;;0.45;75.20
21742;BME280;11033;47.490;11.116;2023-02-14T04:15:00;94790.22;;;0.51;74.92
21742;BME280;11033;47.490;11.116;2023-02-14T04:17:25;94785.25;;;0.62;73.53
21742;BME280;11033;47.490;11.116;2023-02-14T04:20:09;94784.59;;;0.58;73.62
21742;BME280;11033;47.490;11.116;2023-02-14T04:22:34;94786.72;;;0.52;73.03
21742;BME280;11033;47.490;11.116;2023-02-14T04:25:00;94791.97;;;0.50;74.76
21742;BME280;11033;47.490;11.116;2023-02-14T04:27:25;94789.38;;;0.50;74.73
21742;BME280;11033;47.490;11.116;2023-02-14T04:29:50;94791.78;;;0.39;75.58
21742;BME280;11033;47.490;11.116;2023-02-14T04:32:19;94782.06;;;0.43;73.93
21742;BME280;11033;47.490;11.116;2023-02-14T04:34:45;94782.91;;;0.43;74.06
21742;BME280;11033;47.490;11.116;2023-02-14T04:37:11;94779.56;;;0.41;73.95
21742;BME280;11033;47.490;11.116;2023-02-14T04:39:37;94780.75;;;0.36;74.50
21742;BME280;11033;47.490;11.116;2023-02-14T04:42:03;94779.56;;;0.41;74.40
21742;BME280;11033;47.490;11.116;2023-02-14T04:44:29;94779.72;;;0.38;74.26
21742;BME280;11033;47.490;11.116;2023-02-14T04:46:55;94777.22;;;0.37;73.13
21742;BME280;11033;47.490;11.116;2023-02-14T04:49:21;94782.16;;;0.41;73.66
21742;BME280;11033;47.490;11.116;2023-02-14T04:51:46;94771.59;;;0.44;73.99
21742;BME280;11033;47.490;11.116;2023-02-14T04:54:11;94770.13;;;0.40;74.23
21742;BME280;11033;47.490;11.116;2023-02-14T04:56:37;94782.53;;;0.49;72.71
21742;BME280;11033;47.490;11.116;2023-02-14T04:59:03;94781.13;;;0.44;73.33
21742;BME280;11033;47.490;11.116;2023-02-14T05:01:28;94773.53;;;0.41;73.87
21742;BME280;11033;47.490;11.116;2023-02-14T05:03:53;94780.88;;;0.48;73.28
21742;BME280;11033;47.490;11.116;2023-02-14T05:06:19;94777.53;;;0.46;74.27
21742;BME280;11033;47.490;11.116;2023-02-14T05:08:44;94779.03;;;0.50;73.61
21742;BME280;11033;47.490;11.116;2023-02-14T05:11:09;94781.25;;;0.56;73.66
21742;BME280;11033;47.490;11.116;2023-02-14T05:13:35;94777.09;;;0.54;72.85
21742;BME280;11033;47.490;11.116;2023-02-14T05:16:00;94771.44;;;0.61;72.52
21742;BME280;11033;47.490;11.116;2023-02-14T05:18:25;94775.16;;;0.57;73.24
21742;BME280;11033;47.490;11.116;2023-02-14T05:20:52;94783.09;;;0.54;73.75
21742;BME280;11033;47.490;11.116;2023-02-14T05:23:18;94782.00;;;0.58;72.01
21742;BME280;11033;47.490;11.116;2023-02-14T05:25:43;94776.25;;;0.53;73.26
21742;BME280;11033;47.490;11.116;2023-02-14T05:28:09;94773.47;;;0.56;73.03
21742;BME280;11033;47.490;11.116;2023-02-14T05:30:36;94775.50;;;0.51;72.69
21742;BME280;11033;47.490;11.116;2023-02-14T05:33:02;94772.38;;;0.60;71.53
21742;BME280;11033;47.490;11.116;2023-02-14T05:35:28;94774.88;;;0.62;71.95
21742;BME280;11033;47.490;11.116;2023-02-14T05:37:53;94772.56;;;0.57;71.50
21742;BME280;11033;47.490;11.116;2023-02-14T05:40:18;94782.84;;;0.59;72.51
21742;BME280;11033;47.490;11.116;2023-02-14T05:42:44;94773.47;;;0.56;72.60
21742;BME280;11033;47.490;11.116;2023-02-14T05:45:10;94775.22;;;0.42;74.15
21742;BME280;11033;47.490;11.116;2023-02-14T05:47:36;94777.19;;;0.52;72.95
21742;BME280;11033;47.490;11.116;2023-02-14T05:50:01;94761.81;;;0.49;73.22
21742;BME280;11033;47.490;11.116;2023-02-14T05:52:26;94774.19;;;0.44;73.00
21742;BME280;11033;47.490;11.116;2023-02-14T05:54:52;94771.59;;;0.44;71.71
21742;BME280;11033;47.490;11.116;2023-02-14T05:57:17;94769.00;;;0.44;72.89
21742;BME280;11033;47.490;11.116;2023-02-14T05:59:43;94779.66;;;0.40;73.64
21742;BME280;11033;47.490;11.116;2023-02-14T06:02:08;94779.56;;;0.41;71.69
21742;BME280;11033;47.490;11.116;2023-02-14T06:04:33;94778.38;;;0.47;72.54
21742;BME280;11033;47.490;11.116;2023-02-14T06:06:59;94784.75;;;0.41;73.64
21742;BME280;11033;47.490;11.116;2023-02-14T06:09:24;94776.97;;;0.41;72.10
21742;BME280;11033;47.490;11.116;2023-02-14T06:11:49;94779.56;;;0.41;72.58
21742;BME280;11033;47.490;11.116;2023-02-14T06:14:15;94772.06;;;0.37;72.60
21742;BME280;11033;47.490;11.116;2023-02-14T06:16:40;94768.06;;;0.31;71.81
21742;BME280;11033;47.490;11.116;2023-02-14T06:19:05;94770.16;;;0.24;72.39
21742;BME280;11033;47.490;11.116;2023-02-14T06:21:31;94772.66;;;0.26;72.18
21742;BME280;11033;47.490;11.116;2023-02-14T06:23:56;94780.78;;;0.20;73.65
21742;BME280;11033;47.490;11.116;2023-02-14T06:26:21;94785.81;;;0.23;73.72
21742;BME280;11033;47.490;11.116;2023-02-14T06:28:52;94784.09;;;0.38;72.77
21742;BME280;11033;47.490;11.116;2023-02-14T06:31:18;94785.44;;;0.29;73.38
21742;BME280;11033;47.490;11.116;2023-02-14T06:33:43;94791.03;;;0.37;72.81
21742;BME280;11033;47.490;11.116;2023-02-14T06:36:09;94787.88;;;0.32;72.41
21742;BME280;11033;47.490;11.116;2023-02-14T06:38:34;94783.78;;;0.28;72.55
21742;BME280;11033;47.490;11.116;2023-02-14T06:41:04;94789.66;;;0.16;73.53
21742;BME280;11033;47.490;11.116;2023-02-14T06:43:30;94788.00;;;0.15;74.14
21742;BME280;11033;47.490;11.116;2023-02-14T06:45:55;94793.84;;;0.18;73.49
21742;BME280;11033;47.490;11.116;2023-02-14T06:48:20;94792.34;;;0.14;73.62
21742;BME280;11033;47.490;11.116;2023-02-14T06:50:46;94799.09;;;0.17;73.48
21742;BME280;11033;47.490;11.116;2023-02-14T06:53:11;94785.81;;;0.23;73.75
21742;BME280;11033;47.490;11.116;2023-02-14T06:55:37;94786.56;;;0.25;72.46
21742;BME280;11033;47.490;11.116;2023-02-14T06:58:02;94797.66;;;0.27;72.52
21742;BME280;11033;47.490;11.116;2023-02-14T07:00:27;94790.63;;;0.29;72.87
21742;BME280;11033;47.490;11.116;2023-02-14T07:02:53;94787.13;;;0.30;72.81
21742;BME280;11033;47.490;11.116;2023-02-14T07:05:18;94793.63;;;0.37;72.16
21742;BME280;11033;47.490;11.116;2023-02-14T07:07:44;94788.78;;;0.31;73.35
21742;BME280;11033;47.490;11.116;2023-02-14T07:10:10;94789.88;;;0.27;73.86
21742;BME280;11033;47.490;11.116;2023-02-14T07:12:35;94786.69;;;0.38;72.71
21742;BME280;11033;47.490;11.116;2023-02-14T07:15:04;94787.41;;;0.40;72.07
21742;BME280;11033;47.490;11.116;2023-02-14T07:17:29;94782.06;;;0.43;71.50
21742;BME280;11033;47.490;11.116;2023-02-14T07:19:55;94783.91;;;0.41;72.54
21742;BME280;11033;47.490;11.116;2023-02-14T07:22:20;94786.41;;;0.42;72.68
21742;BME280;11033;47.490;11.116;2023-02-14T07:24:45;94784.38;;;0.47;72.38
21742;BME280;11033;47.490;11.116;2023-02-14T07:27:11;94783.28;;;0.51;72.17
21742;BME280;11033;47.490;11.116;2023-02-14T07:29:36;94783.47;;;0.48;71.66
21742;BME280;11033;47.490;11.116;2023-02-14T07:32:01;94782.34;;;0.52;71.90
21742;BME280;11033;47.490;11.116;2023-02-14T07:34:27;94774.41;;;0.55;71.66
21742;BME280;11033;47.490;11.116;2023-02-14T07:36:52;94773.47;;;0.56;73.50
21742;BME280;11033;47.490;11.116;2023-02-14T07:39:17;94774.03;;;0.61;71.97
21742;BME280;11033;47.490;11.116;2023-02-14T07:41:42;94771.38;;;0.63;72.07
21742;BME280;11033;47.490;11.116;2023-02-14T07:44:08;94771.94;;;0.68;72.01
21742;BME280;11033;47.490;11.116;2023-02-14T07:46:33;94781.78;;;0.77;71.45
21742;BME280;11033;47.490;11.116;2023-02-14T07:48:58;94763.16;;;0.85;70.41
21742;BME280;11033;47.490;11.116;2023-02-14T07:51:24;94767.16;;;0.90;70.29
21742;BME280;11033;47.490;11.116;2023-02-14T07:53:49;94766.78;;;0.97;70.39
21742;BME280;11033;47.490;11.116;2023-02-14T07:56:14;94756.22;;;1.00;70.13
21742;BME280;11033;47.490;11.116;2023-02-14T07:58:40;94764.19;;;1.11;70.13
21742;BME280;11033;47.490;11.116;2023-02-14T08:01:05;94761.13;;;1.18;69.99
21742;BME280;11033;47.490;11.116;2023-02-14T08:03:30;94751.31;;;1.38;69.85
21742;BME280;11033;47.490;11.116;2023-02-14T08:05:56;94755.47;;;1.40;68.84
21742;BME280;11033;47.490;11.116;2023-02-14T08:08:26;94749.97;;;1.59;68.57
21742;BME280;11033;47.490;11.116;2023-02-14T08:10:51;94749.03;;;1.60;68.16
21742;BME280;11033;47.490;11.116;2023-02-14T08:13:16;94743.66;;;1.63;67.87
21742;BME280;11033;47.490;11.116;2023-02-14T08:15:42;94739.38;;;1.62;67.93
21742;BME280;11033;47.490;11.116;2023-02-14T08:18:25;94736.16;;;1.85;68.38
21742;BME280;11033;47.490;11.116;2023-02-14T08:20:52;94729.59;;;2.07;66.88
21742;BME280;11033;47.490;11.116;2023-02-14T08:23:18;94730.72;;;2.03;67.29
21742;BME280;11033;47.490;11.116;2023-02-14T08:25:44;94731.41;;;2.19;66.38
21742;BME280;11033;47.490;11.116;2023-02-14T08:28:10;94723.41;;;2.22;66.43
21742;BME280;11033;47.490;11.116;2023-02-14T08:30:36;94727.06;;;2.32;66.52
21742;BME280;11033;47.490;11.116;2023-02-14T08:33:05;94723.00;;;2.41;66.09
21742;BME280;11033;47.490;11.116;2023-02-14T08:35:30;94720.00;;;2.47;65.44
21742;BME280;11033;47.490;11.116;2023-02-14T08:37:56;94715.94;;;2.55;65.47
21742;BME280;11033;47.490;11.116;2023-02-14T08:40:21;94719.09;;;2.86;64.65
21742;BME280;11033;47.490;11.116;2023-02-14T08:42:46;94715.97;;;2.81;64.57
21742;BME280;11033;47.490;11.116;2023-02-14T08:45:12;94713.06;;;2.98;63.87
21742;BME280;11033;47.490;11.116;2023-02-14T08:47:37;94708.84;;;3.34;63.61
21742;BME280;11033;47.490;11.116;2023-02-14T08:50:05;94709.88;;;3.44;62.47
21742;BME280;11033;47.490;11.116;2023-02-14T08:52:31;94705.78;;;3.53;62.68
21742;BME280;11033;47.490;11.116;2023-02-14T08:54:56;94703.69;;;3.81;62.72
21742;BME280;11033;47.490;11.116;2023-02-14T08:57:21;94701.47;;;4.12;61.20
21742;BME280;11033;47.490;11.116;2023-02-14T08:59:47;94699.22;;;4.42;60.30
21742;BME280;11033;47.490;11.116;2023-02-14T09:02:13;94694.97;;;4.53;59.78
21742;BME280;11033;47.490;11.116;2023-02-14T09:04:40;94693.84;;;4.68;60.48
21742;BME280;11033;47.490;11.116;2023-02-14T09:07:05;94699.56;;;5.06;59.82
21742;BME280;11033;47.490;11.116;2023-02-14T09:09:31;94703.16;;;5.28;60.25
21742;BME280;11033;47.490;11.116;2023-02-14T09:11:56;94694.56;;;5.48;59.16
21742;BME280;11033;47.490;11.116;2023-02-14T09:14:22;94694.78;;;5.67;58.01
21742;BME280;11033;47.490;11.116;2023-02-14T09:16:48;94691.44;;;5.88;57.77
21742;BME280;11033;47.490;11.116;2023-02-14T09:19:16;94693.50;;;6.16;58.34
21742;BME280;11033;47.490;11.116;2023-02-14T09:21:41;94691.47;;;6.41;58.33
21742;BME280;11033;47.490;11.116;2023-02-14T09:24:06;94685.84;;;6.77;56.40
21742;BME280;11033;47.490;11.116;2023-02-14T09:26:31;94682.72;;;7.14;57.48
21742;BME280;11033;47.490;11.116;2023-02-14T09:28:57;94688.19;;;7.31;57.34
21742;BME280;11033;47.490;11.116;2023-02-14T09:31:24;94686.91;;;7.56;55.28
21742;BME280;11033;47.490;11.116;2023-02-14T09:33:50;94682.16;;;7.81;54.60
21742;BME280;11033;47.490;11.116;2023-02-14T09:36:15;94686.34;;;8.12;52.67
21742;BME280;11033;47.490;11.116;2023-02-14T09:38:59;94681.13;;;8.51;53.18
21742;BME280;11033;47.490;11.116;2023-02-14T09:44:01;94681.75;;;9.01;51.96
21742;BME280;11033;47.490;11.116;2023-02-14T09:46:28;94668.00;;;9.27;50.56
21742;BME280;11033;47.490;11.116;2023-02-14T09:48:55;94667.38;;;9.42;51.80
21742;BME280;11033;47.490;11.116;2023-02-14T09:51:24;94673.50;;;9.61;48.51
21742;BME280;11033;47.490;11.116;2023-02-14T09:53:57;94672.94;;;9.94;49.74
21742;BME280;11033;47.490;11.116;2023-02-14T10:01:35;94666.25;;;10.89;48.02
21742;BME280;11033;47.490;11.116;2023-02-14T10:10:05;94655.09;;;12.88;46.21
21742;BME280;11033;47.490;11.116;2023-02-14T10:12:40;94657.53;;;13.38;42.80
21742;BME280;11033;47.490;11.116;2023-02-14T10:15:18;94652.41;;;14.23;42.76
21742;BME280;11033;47.490;11.116;2023-02-14T10:17:56;94647.03;;;14.85;42.38
21742;BME280;11033;47.490;11.116;2023-02-14T10:20:28;94634.34;;;14.95;36.83
21742;BME280;11033;47.490;11.116;2023-02-14T10:23:03;94638.88;;;15.76;39.38
21742;BME280;11033;47.490;11.116;2023-02-14T10:28:41;94629.44;;;16.82;35.23
21742;BME280;11033;47.490;11.116;2023-02-14T10:31:24;94634.28;;;17.49;35.37
21742;BME280;11033;47.490;11.116;2023-02-14T10:33:56;94621.94;;;18.11;34.63
21742;BME280;11033;47.490;11.116;2023-02-14T10:42:24;94608.19;;;18.68;34.46
21742;BME280;11033;47.490;11.116;2023-02-14T10:44:56;94602.22;;;19.78;34.33
21742;BME280;11033;47.490;11.116;2023-02-14T10:47:54;94605.91;;;20.42;32.99
21742;BME280;11033;47.490;11.116;2023-02-14T10:50:36;94598.75;;;20.67;32.92
21742;BME280;11033;47.490;11.116;2023-02-14T10:53:18;94592.50;;;21.36;29.82
21742;BME280;11033;47.490;11.116;2023-02-14T10:55:54;94581.50;;;19.60;32.00
21742;BME280;11033;47.490;11.116;2023-02-14T10:58:26;94584.53;;;20.98;33.01
21742;BME280;11033;47.490;11.116;2023-02-14T11:03:20;94578.25;;;20.86;28.63
21742;BME280;11033;47.490;11.116;2023-02-14T11:05:47;94571.03;;;20.86;26.89
21742;BME280;11033;47.490;11.116;2023-02-14T11:08:20;94566.13;;;20.77;31.03
21742;BME280;11033;47.490;11.116;2023-02-14T11:10:47;94566.25;;;19.68;28.79
21742;BME280;11033;47.490;11.116;2023-02-14T11:13:34;94565.19;;;20.96;29.85
21742;BME280;11033;47.490;11.116;2023-02-14T11:16:05;94552.69;;;19.62;27.90
21742;BME280;11033;47.490;11.116;2023-02-14T11:18:31;94548.69;;;22.04;28.21
21742;BME280;11033;47.490;11.116;2023-02-14T11:21:04;94561.34;;;20.85;29.79
21742;BME280;11033;47.490;11.116;2023-02-14T11:23:37;94544.03;;;22.29;26.66
21742;BME280;11033;47.490;11.116;2023-02-14T11:26:24;94534.38;;;21.73;28.70
21742;BME280;11033;47.490;11.116;2023-02-14T11:31:34;94521.91;;;21.79;25.87
21742;BME280;11033;47.490;11.116;2023-02-14T11:34:02;94527.16;;;21.31;27.01
21742;BME280;11033;47.490;11.116;2023-02-14T11:36:29;94523.97;;;20.97;24.77
21742;BME280;11033;47.490;11.116;2023-02-14T11:39:12;94527.78;;;20.51;29.12
21742;BME280;11033;47.490;11.116;2023-02-14T11:41:49;94523.94;;;21.22;26.11
21742;BME280;11033;47.490;11.116;2023-02-14T11:44:21;94517.97;;;23.13;26.37
21742;BME280;11033;47.490;11.116;2023-02-14T11:46:50;94513.53;;;23.77;26.43
21742;BME280;11033;47.490;11.116;2023-02-14T11:49:29;94514.84;;;19.66;25.15
21742;BME280;11033;47.490;11.116;2023-02-14T11:51:56;94505.34;;;23.25;28.85
21742;BME280;11033;47.490;11.116;2023-02-14T11:54:28;94506.91;;;23.56;26.84
21742;BME280;11033;47.490;11.116;2023-02-14T11:56:59;94507.41;;;22.76;24.41
21742;BME280;11033;47.490;11.116;2023-02-14T11:59:41;94506.84;;;21.41;27.16
21742;BME280;11033;47.490;11.116;2023-02-14T12:02:35;94497.88;;;23.51;25.18
21742;BME280;11033;47.490;11.116;2023-02-14T12:05:05;94496.00;;;23.75;24.49
21742;BME280;11033;47.490;11.116;2023-02-14T12:07:42;94493.50;;;22.38;26.06
21742;BME280;11033;47.490;11.116;2023-02-14T12:12:58;94485.16;;;24.38;24.08
21742;BME280;11033;47.490;11.116;2023-02-14T12:15:25;94476.59;;;24.41;25.75
21742;BME280;11033;47.490;11.116;2023-02-14T12:20:44;94473.25;;;24.22;23.52
21742;BME280;11033;47.490;11.116;2023-02-14T12:23:23;94463.94;;;23.73;22.87
21742;BME280;11033;47.490;11.116;2023-02-14T12:25:55;94470.72;;;24.61;23.47
21742;BME280;11033;47.490;11.116;2023-02-14T12:28:30;94469.94;;;23.63;23.95
21742;BME280;11033;47.490;11.116;2023-02-14T12:31:06;94462.34;;;23.25;24.04
21742;BME280;11033;47.490;11.116;2023-02-14T12:33:32;94453.59;;;22.95;23.05
21742;BME280;11033;47.490;11.116;2023-02-14T12:41:36;94458.47;;;23.33;25.71
21742;BME280;11033;47.490;11.116;2023-02-14T12:44:13;94449.28;;;20.57;23.84
21742;BME280;11033;47.490;11.116;2023-02-14T12:49:31;94434.16;;;24.82;24.44
21742;BME280;11033;47.490;11.116;2023-02-14T12:52:37;94434.03;;;23.58;23.99
21742;BME280;11033;47.490;11.116;2023-02-14T13:03:58;94429.19;;;21.83;24.70
21742;BME280;11033;47.490;11.116;2023-02-14T13:06:32;94422.03;;;23.77;23.69
21742;BME280;11033;47.490;11.116;2023-02-14T13:11:56;94416.75;;;24.39;25.07
21742;BME280;11033;47.490;11.116;2023-02-14T13:20:12;94408.16;;;24.42;23.68
21742;BME280;11033;47.490;11.116;2023-02-14T13:22:45;94411.69;;;24.14;25.58
21742;BME280;11033;47.490;11.116;2023-02-14T13:25:24;94410.13;;;24.63;24.99
21742;BME280;11033;47.490;11.116;2023-02-14T13:28:03;94409.66;;;22.89;24.21
21742;BME280;11033;47.490;11.116;2023-02-14T13:30:34;94412.06;;;23.14;26.47
21742;BME280;11033;47.490;11.116;2023-02-14T13:33:05;94399.38;;;23.61;23.95
21742;BME280;11033;47.490;11.116;2023-02-14T13:35:32;94398.22;;;24.59;26.40
21742;BME280;11033;47.490;11.116;2023-02-14T13:38:01;94394.94;;;24.91;24.28
21742;BME280;11033;47.490;11.116;2023-02-14T13:40:28;94396.09;;;24.28;25.02
21742;BME280;11033;47.490;11.116;2023-02-14T13:42:57;94395.97;;;24.23;25.38
21742;BME280;11033;47.490;11.116;2023-02-14T13:50:36;94391.63;;;23.01;25.45
21742;BME280;11033;47.490;11.116;2023-02-14T13:53:02;94392.38;;;22.02;26.47
21742;BME280;11033;47.490;11.116;2023-02-14T13:55:33;94387.94;;;23.83;24.87
21742;BME280;11033;47.490;11.116;2023-02-14T13:58:03;94383.19;;;24.47;24.92
21742;BME280;11033;47.490;11.116;2023-02-14T14:00:42;94388.44;;;22.34;25.95
21742;BME280;11033;47.490;11.116;2023-02-14T14:10:54;94382.03;;;24.59;25.69
21742;BME280;11033;47.490;11.116;2023-02-14T14:19:06;94384.22;;;24.00;25.34
21742;BME280;11033;47.490;11.116;2023-02-14T14:21:38;94385.53;;;22.48;25.54
21742;BME280;11033;47.490;11.116;2023-02-14T14:24:21;94383.31;;;22.56;26.46
21742;BME280;11033;47.490;11.116;2023-02-14T14:27:13;94375.81;;;22.35;25.80
21742;BME280;11033;47.490;11.116;2023-02-14T14:29:45;94381.59;;;22.97;27.40
21742;BME280;11033;47.490;11.116;2023-02-14T14:32:16;94381.44;;;22.68;26.88
21742;BME280;11033;47.490;11.116;2023-02-14T14:34:52;94384.84;;;21.14;28.22
21742;BME280;11033;47.490;11.116;2023-02-14T14:37:20;94384.03;;;21.80;27.20
21742;BME280;11033;47.490;11.116;2023-02-14T14:39:54;94383.66;;;22.48;27.27
21742;BME280;11033;47.490;11.116;2023-02-14T14:42:20;94376.16;;;22.27;26.52
21742;BME280;11033;47.490;11.116;2023-02-14T14:44:52;94384.00;;;20.77;28.83
21742;BME280;11033;47.490;11.116;2023-02-14T14:47:22;94377.19;;;21.54;28.36
21742;BME280;11033;47.490;11.116;2023-02-14T14:49:50;94379.31;;;22.35;28.04
21742;BME280;11033;47.490;11.116;2023-02-14T14:52:28;94373.34;;;22.22;27.72
21742;BME280;11033;47.490;11.116;2023-02-14T14:54:54;94374.88;;;21.58;27.53
21742;BME280;11033;47.490;11.116;2023-02-14T14:57:20;94386.13;;;21.11;28.77
21742;BME280;11033;47.490;11.116;2023-02-14T14:59:46;94380.50;;;21.68;29.16
21742;BME280;11033;47.490;11.116;2023-02-14T15:02:21;94378.38;;;21.40;28.27
21742;BME280;11033;47.490;11.116;2023-02-14T15:04:47;94375.78;;;20.29;28.96
21742;BME280;11033;47.490;11.116;2023-02-14T15:07:27;94370.25;;;20.92;28.47